sensor_id;sensor_type;location;lat;lon;timestamp;pressure;altitude;pressure_sealevel;temperature;humidity
61757;BME280;57225;61.460;24.060;2023-02-28T00:00:12;100200.75;;;1.81;100.00
61757;BME280;57225;61.460;24.060;2023-02-28T00:02:57;100212.00;;;1.88;100.00
61757;BME280;57225;61.460;24.060;2023-02-28T00:05:42;100222.84;;;1.84;100.00
61757;BME280;57225;61.460;24.060;2023-02-28T00:08:26;100218.72;;;1.78;100.00
61757;BME280;57225;61.460;24.060;2023-02-28T00:11:13;100214.59;;;1.72;100.00
61757;BME280;57225;61.460;24.060;2023-02-28T00:13:57;100214.25;;;1.74;100.00
61757;BME280;57225;61.460;24.060;2023-02-28T00:16:42;100200.63;;;1.77;100.00
61757;BME280;57225;61.460;24.060;2023-02-28T00:19:26;100201.31;;;1.74;100.00
61757;BME280;57225;61.460;24.060;2023-02-28T00:22:11;100231.09;;;1.72;100.00
61757;BME280;57225;61.460;24.060;2023-02-28T00:24:55;100224.69;;;1.68;100.00
61757;BME280;57225;61.460;24.060;2023-02-28T00:27:40;100217.47;;;1.64;100.00
61757;BME280;57225;61.460;24.060;2023-02-28T00:30:25;100224.19;;;1.54;100.00
61757;BME280;57225;61.460;24.060;2023-02-28T00:33:09;100215.72;;;1.59;100.00
61757;BME280;57225;61.460;24.060;2023-02-28T00:36:01;100214.00;;;1.54;100.00
61757;BME280;57225;61.460;24.060;2023-02-28T00:38:47;100207.03;;;1.57;100.00
61757;BME280;57225;61.460;24.060;2023-02-28T00:41:32;100202.44;;;1.61;100.00
61757;BME280;57225;61.460;24.060;2023-02-28T00:44:16;100200.63;;;1.65;100.00
61757;BME280;57225;61.460;24.060;2023-02-28T00:47:00;100208.84;;;1.65;100.00
61757;BME280;57225;61.460;24.060;2023-02-28T00:49:45;100213.78;;;1.59;100.00
61757;BME280;57225;61.460;24.060;2023-02-28T00:52:29;100202.75;;;1.47;100.00
61757;BME280;57225;61.460;24.060;2023-02-28T00:55:14;100201.06;;;1.43;100.00
61757;BME280;57225;61.460;24.060;2023-02-28T00:57:59;100201.38;;;1.41;100.00
61757;BME280;57225;61.460;24.060;2023-02-28T01:00:43;100188.09;;;1.31;100.00
61757;BME280;57225;61.460;24.060;2023-02-28T01:03:33;100191.84;;;1.27;100.00
61757;BME280;57225;61.460;24.060;2023-02-28T01:06:17;100191.66;;;1.32;100.00
61757;BME280;57225;61.460;24.060;2023-02-28T01:09:03;100199.91;;;1.44;100.00
61757;BME280;57225;61.460;24.060;2023-02-28T01:11:48;100199.56;;;1.45;100.00
61757;BME280;57225;61.460;24.060;2023-02-28T01:14:33;100211.44;;;1.37;100.00
61757;BME280;57225;61.460;24.060;2023-02-28T01:17:18;100207.72;;;1.21;100.00
61757;BME280;57225;61.460;24.060;2023-02-28T01:20:03;100210.72;;;1.28;100.00
61757;BME280;57225;61.460;24.060;2023-02-28T01:22:48;100212.09;;;1.22;100.00
61757;BME280;57225;61.460;24.060;2023-02-28T01:25:36;100205.16;;;1.37;100.00
61757;BME280;57225;61.460;24.060;2023-02-28T01:28:21;100212.28;;;1.50;100.00
61757;BME280;57225;61.460;24.060;2023-02-28T01:31:06;100207.47;;;1.47;100.00
61757;BME280;57225;61.460;24.060;2023-02-28T01:33:50;100197.31;;;1.27;100.00
61757;BME280;57225;61.460;24.060;2023-02-28T01:36:35;100207.41;;;1.23;100.00
61757;BME280;57225;61.460;24.060;2023-02-28T01:39:20;100207.31;;;1.31;100.00
61757;BME280;57225;61.460;24.060;2023-02-28T01:42:04;100220.19;;;1.18;100.00
61757;BME280;57225;61.460;24.060;2023-02-28T01:44:59;100223.34;;;1.08;100.00
61757;BME280;57225;61.460;24.060;2023-02-28T01:47:44;100231.53;;;0.96;100.00
61757;BME280;57225;61.460;24.060;2023-02-28T01:50:33;100207.31;;;0.98;100.00
61757;BME280;57225;61.460;24.060;2023-02-28T01:53:24;100186.28;;;1.02;100.00
61757;BME280;57225;61.460;24.060;2023-02-28T01:56:12;100192.19;;;0.92;100.00
61757;BME280;57225;61.460;24.060;2023-02-28T01:59:04;100202.03;;;0.93;100.00
61757;BME280;57225;61.460;24.060;2023-02-28T02:01:49;100199.03;;;0.86;100.00
61757;BME280;57225;61.460;24.060;2023-02-28T02:04:40;100199.34;;;1.05;100.00
61757;BME280;57225;61.460;24.060;2023-02-28T02:07:26;100197.28;;;1.14;100.00
61757;BME280;57225;61.460;24.060;2023-02-28T02:13:11;100196.16;;;1.15;100.00
61757;BME280;57225;61.460;24.060;2023-02-28T02:16:20;100201.53;;;1.12;100.00
61757;BME280;57225;61.460;24.060;2023-02-28T02:19:16;100177.66;;;1.25;100.00
61757;BME280;57225;61.460;24.060;2023-02-28T02:34:40;100184.84;;;1.74;100.00
61757;BME280;57225;61.460;24.060;2023-02-28T02:43:07;100211.50;;;1.61;100.00
61757;BME280;57225;61.460;24.060;2023-02-28T02:45:55;100209.31;;;1.55;100.00
61757;BME280;57225;61.460;24.060;2023-02-28T02:48:41;100207.59;;;1.50;100.00
61757;BME280;57225;61.460;24.060;2023-02-28T02:51:30;100189.47;;;1.37;100.00
61757;BME280;57225;61.460;24.060;2023-02-28T02:54:30;100215.81;;;1.38;100.00
61757;BME280;57225;61.460;24.060;2023-02-28T02:57:31;100211.22;;;1.42;100.00
61757;BME280;57225;61.460;24.060;2023-02-28T03:00:20;100211.47;;;1.49;100.00
61757;BME280;57225;61.460;24.060;2023-02-28T03:03:08;100217.31;;;1.60;100.00
61757;BME280;57225;61.460;24.060;2023-02-28T03:05:55;100212.09;;;1.79;100.00
61757;BME280;57225;61.460;24.060;2023-02-28T03:08:40;100197.22;;;1.92;100.00
61757;BME280;57225;61.460;24.060;2023-02-28T03:11:24;100199.84;;;2.01;100.00
61757;BME280;57225;61.460;24.060;2023-02-28T03:24:19;100212.28;;;2.47;100.00
61757;BME280;57225;61.460;24.060;2023-02-28T03:27:09;100198.22;;;2.36;100.00
61757;BME280;57225;61.460;24.060;2023-02-28T03:33:12;100208.38;;;2.48;100.00
61757;BME280;57225;61.460;24.060;2023-02-28T03:36:26;100220.31;;;2.52;100.00
61757;BME280;57225;61.460;24.060;2023-02-28T03:39:12;100216.22;;;2.46;100.00
61757;BME280;57225;61.460;24.060;2023-02-28T03:42:01;100225.03;;;2.52;100.00
61757;BME280;57225;61.460;24.060;2023-02-28T03:44:54;100237.06;;;2.59;100.00
61757;BME280;57225;61.460;24.060;2023-02-28T03:48:34;100233.38;;;2.43;100.00
61757;BME280;57225;61.460;24.060;2023-02-28T03:51:10;100228.38;;;2.33;100.00
61757;BME280;57225;61.460;24.060;2023-02-28T03:54:01;100215.66;;;2.16;100.00
61757;BME280;57225;61.460;24.060;2023-02-28T03:56:54;100233.88;;;2.21;100.00
61757;BME280;57225;61.460;24.060;2023-02-28T03:59:44;100228.16;;;2.14;100.00
61757;BME280;57225;61.460;24.060;2023-02-28T04:02:31;100218.97;;;2.22;100.00
61757;BME280;57225;61.460;24.060;2023-02-28T04:05:16;100225.41;;;2.14;100.00
61757;BME280;57225;61.460;24.060;2023-02-28T04:08:05;100222.53;;;1.98;100.00
61757;BME280;57225;61.460;24.060;2023-02-28T04:11:04;100216.00;;;2.02;100.00
61757;BME280;57225;61.460;24.060;2023-02-28T04:13:51;100203.19;;;1.82;100.00
61757;BME280;57225;61.460;24.060;2023-02-28T04:16:38;100229.72;;;2.02;100.00
61757;BME280;57225;61.460;24.060;2023-02-28T04:19:22;100215.31;;;1.81;100.00
61757;BME280;57225;61.460;24.060;2023-02-28T04:22:08;100229.97;;;1.97;100.00
61757;BME280;57225;61.460;24.060;2023-02-28T04:24:53;100234.31;;;1.98;100.00
61757;BME280;57225;61.460;24.060;2023-02-28T04:27:40;100234.31;;;1.86;100.00
61757;BME280;57225;61.460;24.060;2023-02-28T04:30:25;100234.78;;;1.76;100.00
61757;BME280;57225;61.460;24.060;2023-02-28T04:33:09;100246.91;;;1.75;100.00
61757;BME280;57225;61.460;24.060;2023-02-28T04:36:06;100222.97;;;1.64;100.00
61757;BME280;57225;61.460;24.060;2023-02-28T04:38:51;100242.03;;;1.60;100.00
61757;BME280;57225;61.460;24.060;2023-02-28T04:41:35;100253.50;;;1.62;100.00
61757;BME280;57225;61.460;24.060;2023-02-28T04:44:20;100252.44;;;1.54;100.00
61757;BME280;57225;61.460;24.060;2023-02-28T04:47:05;100250.72;;;1.50;100.00
61757;BME280;57225;61.460;24.060;2023-02-28T04:49:50;100255.19;;;1.54;100.00
61757;BME280;57225;61.460;24.060;2023-02-28T04:52:34;100242.16;;;1.51;100.00
61757;BME280;57225;61.460;24.060;2023-02-28T04:55:18;100248.22;;;1.45;100.00
61757;BME280;57225;61.460;24.060;2023-02-28T04:58:03;100244.06;;;1.39;100.00
61757;BME280;57225;61.460;24.060;2023-02-28T05:00:49;100257.97;;;1.34;100.00
61757;BME280;57225;61.460;24.060;2023-02-28T05:03:33;100243.38;;;1.42;100.00
61757;BME280;57225;61.460;24.060;2023-02-28T05:06:19;100249.19;;;1.40;100.00
61757;BME280;57225;61.460;24.060;2023-02-28T05:09:04;100246.72;;;1.47;100.00
61757;BME280;57225;61.460;24.060;2023-02-28T05:11:48;100241.09;;;1.44;100.00
61757;BME280;57225;61.460;24.060;2023-02-28T05:14:33;100245.53;;;1.36;100.00
61757;BME280;57225;61.460;24.060;2023-02-28T05:17:17;100262.25;;;1.43;100.00
61757;BME280;57225;61.460;24.060;2023-02-28T05:20:01;100240.84;;;1.37;100.00
61757;BME280;57225;61.460;24.060;2023-02-28T05:22:49;100261.72;;;1.50;100.00
61757;BME280;57225;61.460;24.060;2023-02-28T05:25:33;100256.34;;;1.53;100.00
61757;BME280;57225;61.460;24.060;2023-02-28T05:28:18;100264.47;;;1.50;100.00
61757;BME280;57225;61.460;24.060;2023-02-28T05:31:03;100278.63;;;1.52;100.00
61757;BME280;57225;61.460;24.060;2023-02-28T05:33:47;100274.31;;;1.51;100.00
61757;BME280;57225;61.460;24.060;2023-02-28T05:36:32;100273.22;;;1.64;100.00
61757;BME280;57225;61.460;24.060;2023-02-28T05:39:17;100243.31;;;1.63;100.00
61757;BME280;57225;61.460;24.060;2023-02-28T05:42:01;100258.09;;;1.58;100.00
61757;BME280;57225;61.460;24.060;2023-02-28T05:44:46;100257.84;;;1.51;100.00
61757;BME280;57225;61.460;24.060;2023-02-28T05:47:30;100269.72;;;1.55;100.00
61757;BME280;57225;61.460;24.060;2023-02-28T05:50:15;100258.47;;;1.36;100.00
61757;BME280;57225;61.460;24.060;2023-02-28T05:52:59;100262.47;;;1.38;100.00
61757;BME280;57225;61.460;24.060;2023-02-28T05:55:43;100275.66;;;1.45;100.00
61757;BME280;57225;61.460;24.060;2023-02-28T05:58:28;100278.63;;;1.52;100.00
61757;BME280;57225;61.460;24.060;2023-02-28T06:01:33;100275.78;;;1.48;100.00
61757;BME280;57225;61.460;24.060;2023-02-28T06:04:19;100289.19;;;1.50;100.00
61757;BME280;57225;61.460;24.060;2023-02-28T06:07:04;100282.50;;;1.39;100.00
61757;BME280;57225;61.460;24.060;2023-02-28T06:09:48;100298.56;;;1.49;100.00
61757;BME280;57225;61.460;24.060;2023-02-28T06:12:33;100300.88;;;1.59;100.00
61757;BME280;57225;61.460;24.060;2023-02-28T06:15:17;100303.97;;;1.57;100.00
61757;BME280;57225;61.460;24.060;2023-02-28T06:18:02;100313.34;;;1.56;100.00
61757;BME280;57225;61.460;24.060;2023-02-28T06:20:54;100325.31;;;1.52;100.00
61757;BME280;57225;61.460;24.060;2023-02-28T06:23:39;100328.44;;;1.50;100.00
61757;BME280;57225;61.460;24.060;2023-02-28T06:26:23;100328.84;;;1.40;100.00
61757;BME280;57225;61.460;24.060;2023-02-28T06:29:08;100344.16;;;1.41;100.00
61757;BME280;57225;61.460;24.060;2023-02-28T06:31:52;100343.38;;;1.41;100.00
61757;BME280;57225;61.460;24.060;2023-02-28T06:34:37;100343.03;;;1.42;100.00
61757;BME280;57225;61.460;24.060;2023-02-28T06:56:15;100364.47;;;1.49;95.76
61757;BME280;57225;61.460;24.060;2023-02-28T06:59:00;100367.69;;;1.51;96.14
61757;BME280;57225;61.460;24.060;2023-02-28T07:01:44;100371.69;;;1.53;92.10
61757;BME280;57225;61.460;24.060;2023-02-28T07:04:29;100367.47;;;1.56;89.83
61757;BME280;57225;61.460;24.060;2023-02-28T07:07:13;100363.53;;;1.45;90.32
61757;BME280;57225;61.460;24.060;2023-02-28T07:09:58;100372.31;;;1.38;90.51
61757;BME280;57225;61.460;24.060;2023-02-28T07:12:42;100393.28;;;1.43;89.12
61757;BME280;57225;61.460;24.060;2023-02-28T07:15:27;100381.38;;;1.39;88.03
61757;BME280;57225;61.460;24.060;2023-02-28T07:18:12;100389.59;;;1.39;87.45
61757;BME280;57225;61.460;24.060;2023-02-28T07:20:56;100400.75;;;1.34;89.21
61757;BME280;57225;61.460;24.060;2023-02-28T07:23:41;100411.63;;;1.30;91.04
61757;BME280;57225;61.460;24.060;2023-02-28T07:26:25;100427.63;;;1.28;90.21
61757;BME280;57225;61.460;24.060;2023-02-28T07:29:10;100429.28;;;1.20;92.16
61757;BME280;57225;61.460;24.060;2023-02-28T07:31:54;100427.22;;;1.17;90.71
61757;BME280;57225;61.460;24.060;2023-02-28T07:34:39;100429.47;;;1.15;92.47
61757;BME280;57225;61.460;24.060;2023-02-28T07:37:23;100439.19;;;1.13;88.51
61757;BME280;57225;61.460;24.060;2023-02-28T07:40:10;100442.91;;;1.08;87.28
61757;BME280;57225;61.460;24.060;2023-02-28T07:42:59;100442.09;;;1.08;86.14
61757;BME280;57225;61.460;24.060;2023-02-28T07:45:44;100456.09;;;0.94;85.55
61757;BME280;57225;61.460;24.060;2023-02-28T07:48:28;100455.78;;;0.87;86.78
61757;BME280;57225;61.460;24.060;2023-02-28T07:51:13;100460.59;;;0.90;87.10
61757;BME280;57225;61.460;24.060;2023-02-28T07:53:57;100459.44;;;1.00;88.18
61757;BME280;57225;61.460;24.060;2023-02-28T07:56:42;100473.63;;;1.02;87.58
61757;BME280;57225;61.460;24.060;2023-02-28T07:59:26;100487.22;;;0.98;88.14
61757;BME280;57225;61.460;24.060;2023-02-28T08:02:15;100487.06;;;0.95;87.63
61757;BME280;57225;61.460;24.060;2023-02-28T08:05:00;100490.50;;;0.83;86.19
61757;BME280;57225;61.460;24.060;2023-02-28T08:07:45;100509.44;;;0.67;87.13
61757;BME280;57225;61.460;24.060;2023-02-28T08:10:29;100508.00;;;0.53;85.39
61757;BME280;57225;61.460;24.060;2023-02-28T08:13:14;100472.53;;;0.48;82.16
61757;BME280;57225;61.460;24.060;2023-02-28T08:15:58;100483.06;;;0.37;80.08
61757;BME280;57225;61.460;24.060;2023-02-28T08:18:44;100502.41;;;0.32;81.45
61757;BME280;57225;61.460;24.060;2023-02-28T08:21:29;100497.91;;;0.27;83.80
61757;BME280;57225;61.460;24.060;2023-02-28T08:24:13;100499.19;;;0.21;84.54
61757;BME280;57225;61.460;24.060;2023-02-28T08:26:58;100508.22;;;0.22;85.53
61757;BME280;57225;61.460;24.060;2023-02-28T08:29:42;100494.84;;;0.20;87.91
61757;BME280;57225;61.460;24.060;2023-02-28T08:32:27;100498.41;;;0.29;86.93
61757;BME280;57225;61.460;24.060;2023-02-28T08:35:11;100460.19;;;0.16;88.11
61757;BME280;57225;61.460;24.060;2023-02-28T08:37:56;100474.03;;;0.28;83.96
61757;BME280;57225;61.460;24.060;2023-02-28T08:40:40;100482.56;;;0.44;85.54
61757;BME280;57225;61.460;24.060;2023-02-28T08:43:25;100488.00;;;0.52;83.93
61757;BME280;57225;61.460;24.060;2023-02-28T08:46:13;100496.25;;;0.52;85.03
61757;BME280;57225;61.460;24.060;2023-02-28T08:48:58;100510.28;;;0.51;81.48
61757;BME280;57225;61.460;24.060;2023-02-28T08:51:45;100488.56;;;0.37;82.59
61757;BME280;57225;61.460;24.060;2023-02-28T08:54:30;100504.28;;;0.57;81.43
61757;BME280;57225;61.460;24.060;2023-02-28T08:57:15;100509.63;;;0.62;81.72
61757;BME280;57225;61.460;24.060;2023-02-28T09:00:00;100501.72;;;0.61;81.14
61757;BME280;57225;61.460;24.060;2023-02-28T09:02:48;100506.72;;;0.59;81.26
61757;BME280;57225;61.460;24.060;2023-02-28T09:05:33;100514.56;;;0.77;81.55
61757;BME280;57225;61.460;24.060;2023-02-28T09:08:17;100514.84;;;0.85;80.30
61757;BME280;57225;61.460;24.060;2023-02-28T09:11:02;100515.03;;;0.88;79.98
61757;BME280;57225;61.460;24.060;2023-02-28T09:13:46;100523.94;;;1.14;78.23
61757;BME280;57225;61.460;24.060;2023-02-28T09:16:31;100530.59;;;1.05;77.26
61757;BME280;57225;61.460;24.060;2023-02-28T09:19:16;100523.47;;;1.12;79.23
61757;BME280;57225;61.460;24.060;2023-02-28T09:22:01;100520.84;;;1.16;76.76
61757;BME280;57225;61.460;24.060;2023-02-28T09:24:45;100552.47;;;1.22;76.60
61757;BME280;57225;61.460;24.060;2023-02-28T09:27:30;100547.69;;;1.10;76.74
61757;BME280;57225;61.460;24.060;2023-02-28T09:30:14;100534.81;;;1.02;74.78
61757;BME280;57225;61.460;24.060;2023-02-28T09:32:59;100541.25;;;1.06;75.24
61757;BME280;57225;61.460;24.060;2023-02-28T09:35:43;100521.66;;;1.16;74.11
61757;BME280;57225;61.460;24.060;2023-02-28T09:38:28;100547.38;;;1.41;73.21
61757;BME280;57225;61.460;24.060;2023-02-28T09:41:26;100534.41;;;1.21;73.05
61757;BME280;57225;61.460;24.060;2023-02-28T09:44:36;100545.53;;;1.25;75.05
61757;BME280;57225;61.460;24.060;2023-02-28T09:47:36;100546.19;;;1.21;73.74
61757;BME280;57225;61.460;24.060;2023-02-28T09:50:36;100539.16;;;1.03;74.55
61757;BME280;57225;61.460;24.060;2023-02-28T09:53:28;100552.75;;;1.38;75.57
61757;BME280;57225;61.460;24.060;2023-02-28T09:56:24;100548.25;;;1.63;74.04
61757;BME280;57225;61.460;24.060;2023-02-28T10:02:41;100545.03;;;1.81;71.63
61757;BME280;57225;61.460;24.060;2023-02-28T10:05:49;100548.84;;;2.10;70.90
61757;BME280;57225;61.460;24.060;2023-02-28T10:09:04;100553.63;;;1.80;69.60
61757;BME280;57225;61.460;24.060;2023-02-28T10:11:48;100545.34;;;1.30;71.05
61757;BME280;57225;61.460;24.060;2023-02-28T10:14:35;100543.31;;;1.47;69.63
61757;BME280;57225;61.460;24.060;2023-02-28T10:17:25;100549.28;;;1.49;71.30
61757;BME280;57225;61.460;24.060;2023-02-28T10:20:13;100541.22;;;1.74;69.80
61757;BME280;57225;61.460;24.060;2023-02-28T10:23:21;100539.31;;;1.66;68.79
61757;BME280;57225;61.460;24.060;2023-02-28T10:26:12;100522.38;;;1.84;68.39
61757;BME280;57225;61.460;24.060;2023-02-28T10:28:57;100509.91;;;1.87;69.50
61757;BME280;57225;61.460;24.060;2023-02-28T10:31:41;100520.97;;;1.78;67.97
61757;BME280;57225;61.460;24.060;2023-02-28T10:34:26;100511.44;;;1.96;68.22
61757;BME280;57225;61.460;24.060;2023-02-28T10:37:11;100520.66;;;2.00;65.57
61757;BME280;57225;61.460;24.060;2023-02-28T10:39:57;100519.97;;;1.83;65.40
61757;BME280;57225;61.460;24.060;2023-02-28T10:42:41;100517.78;;;1.76;66.86
61757;BME280;57225;61.460;24.060;2023-02-28T10:45:28;100530.38;;;1.18;67.00
61757;BME280;57225;61.460;24.060;2023-02-28T10:50:58;100533.44;;;1.17;66.29
61757;BME280;57225;61.460;24.060;2023-02-28T10:56:28;100537.97;;;1.51;65.55
61757;BME280;57225;61.460;24.060;2023-02-28T10:59:29;100533.72;;;1.83;64.32
61757;BME280;57225;61.460;24.060;2023-02-28T11:02:35;100532.03;;;1.70;64.39
61757;BME280;57225;61.460;24.060;2023-02-28T11:05:32;100530.09;;;1.91;63.43
61757;BME280;57225;61.460;24.060;2023-02-28T11:08:18;100529.50;;;2.06;64.23
61757;BME280;57225;61.460;24.060;2023-02-28T11:11:06;100538.56;;;2.07;63.58
61757;BME280;57225;61.460;24.060;2023-02-28T11:13:53;100539.41;;;1.98;61.96
61757;BME280;57225;61.460;24.060;2023-02-28T11:16:37;100533.25;;;2.01;62.69
61757;BME280;57225;61.460;24.060;2023-02-28T11:19:32;100543.50;;;2.13;59.84
61757;BME280;57225;61.460;24.060;2023-02-28T11:22:21;100531.66;;;2.00;60.80
61757;BME280;57225;61.460;24.060;2023-02-28T11:25:16;100522.84;;;1.86;58.60
61757;BME280;57225;61.460;24.060;2023-02-28T11:28:26;100521.94;;;1.82;58.88
61757;BME280;57225;61.460;24.060;2023-02-28T11:33:58;100526.53;;;1.70;57.62
61757;BME280;57225;61.460;24.060;2023-02-28T11:36:42;100526.66;;;1.73;56.80
61757;BME280;57225;61.460;24.060;2023-02-28T11:39:28;100496.97;;;1.67;57.22
61757;BME280;57225;61.460;24.060;2023-02-28T11:42:37;100522.19;;;1.89;58.20
61757;BME280;57225;61.460;24.060;2023-02-28T11:52:21;100511.47;;;1.76;58.34
61757;BME280;57225;61.460;24.060;2023-02-28T11:55:14;100521.31;;;1.77;59.36
61757;BME280;57225;61.460;24.060;2023-02-28T12:01:05;100518.81;;;1.63;59.09
61757;BME280;57225;61.460;24.060;2023-02-28T12:13:04;100513.25;;;1.51;58.99
61757;BME280;57225;61.460;24.060;2023-02-28T12:19:13;100507.94;;;1.46;58.77
61757;BME280;57225;61.460;24.060;2023-02-28T12:25:20;100526.53;;;1.70;60.02
61757;BME280;57225;61.460;24.060;2023-02-28T12:28:09;100531.56;;;1.68;59.72
61757;BME280;57225;61.460;24.060;2023-02-28T12:31:12;100548.69;;;1.65;58.87
61757;BME280;57225;61.460;24.060;2023-02-28T12:34:21;100541.09;;;1.91;59.99
61757;BME280;57225;61.460;24.060;2023-02-28T12:37:10;100530.81;;;1.79;59.22
61757;BME280;57225;61.460;24.060;2023-02-28T12:40:03;100546.78;;;1.86;60.24
61757;BME280;57225;61.460;24.060;2023-02-28T12:42:58;100534.31;;;1.88;61.39
61757;BME280;57225;61.460;24.060;2023-02-28T12:45:50;100533.56;;;1.79;60.25
61757;BME280;57225;61.460;24.060;2023-02-28T12:48:44;100538.69;;;1.89;59.56
61757;BME280;57225;61.460;24.060;2023-02-28T12:51:31;100534.44;;;1.71;58.75
61757;BME280;57225;61.460;24.060;2023-02-28T12:54:25;100531.88;;;1.66;59.51
61757;BME280;57225;61.460;24.060;2023-02-28T13:00:13;100533.09;;;1.56;59.23
61757;BME280;57225;61.460;24.060;2023-02-28T13:09:16;100539.63;;;1.43;59.42
61757;BME280;57225;61.460;24.060;2023-02-28T13:12:01;100534.31;;;1.38;59.32
61757;BME280;57225;61.460;24.060;2023-02-28T13:14:46;100547.03;;;1.51;59.25
61757;BME280;57225;61.460;24.060;2023-02-28T13:17:30;100536.34;;;1.50;59.35
61757;BME280;57225;61.460;24.060;2023-02-28T13:20:24;100531.50;;;1.47;58.77
61757;BME280;57225;61.460;24.060;2023-02-28T13:37:36;100520.72;;;1.12;59.76
61757;BME280;57225;61.460;24.060;2023-02-28T13:40:32;100520.72;;;1.12;60.32
61757;BME280;57225;61.460;24.060;2023-02-28T13:43:20;100516.03;;;1.13;59.80
61757;BME280;57225;61.460;24.060;2023-02-28T13:46:25;100506.72;;;1.05;61.52
61757;BME280;57225;61.460;24.060;2023-02-28T13:52:17;100516.91;;;0.96;60.54
61757;BME280;57225;61.460;24.060;2023-02-28T13:55:23;100513.53;;;0.99;60.94
61757;BME280;57225;61.460;24.060;2023-02-28T14:01:59;100515.66;;;0.85;61.46
61757;BME280;57225;61.460;24.060;2023-02-28T14:05:12;100511.78;;;0.86;61.99
61757;BME280;57225;61.460;24.060;2023-02-28T14:07:59;100514.72;;;0.81;62.88
61757;BME280;57225;61.460;24.060;2023-02-28T14:10:51;100514.25;;;0.79;62.49
61757;BME280;57225;61.460;24.060;2023-02-28T14:13:46;100502.16;;;0.71;62.90
61757;BME280;57225;61.460;24.060;2023-02-28T14:16:47;100509.94;;;0.69;63.20
61757;BME280;57225;61.460;24.060;2023-02-28T14:19:35;100523.34;;;0.62;63.53
61757;BME280;57225;61.460;24.060;2023-02-28T14:25:52;100522.22;;;0.55;63.82
61757;BME280;57225;61.460;24.060;2023-02-28T14:31:37;100521.41;;;0.54;63.67
61757;BME280;57225;61.460;24.060;2023-02-28T14:35:00;100518.66;;;0.46;65.11
61757;BME280;57225;61.460;24.060;2023-02-28T14:37:47;100522.09;;;0.43;64.17
61757;BME280;57225;61.460;24.060;2023-02-28T14:40:35;100502.75;;;0.30;65.89
61757;BME280;57225;61.460;24.060;2023-02-28T14:43:25;100514.19;;;0.32;67.82
61757;BME280;57225;61.460;24.060;2023-02-28T14:46:12;100519.84;;;0.27;65.25
61757;BME280;57225;61.460;24.060;2023-02-28T14:48:58;100525.50;;;0.22;68.64
61757;BME280;57225;61.460;24.060;2023-02-28T14:51:43;100514.88;;;0.12;66.89
61757;BME280;57225;61.460;24.060;2023-02-28T14:54:28;100520.97;;;0.09;67.61
61757;BME280;57225;61.460;24.060;2023-02-28T14:57:23;100518.09;;;-0.03;66.95
61757;BME280;57225;61.460;24.060;2023-02-28T15:00:14;100526.16;;;-0.07;69.96
61757;BME280;57225;61.460;24.060;2023-02-28T15:02:59;100524.22;;;-0.15;70.35
61757;BME280;57225;61.460;24.060;2023-02-28T15:05:52;100523.06;;;-0.22;68.88
61757;BME280;57225;61.460;24.060;2023-02-28T15:08:37;100519.66;;;-0.36;69.18
61757;BME280;57225;61.460;24.060;2023-02-28T15:11:22;100526.75;;;-0.35;69.90
61757;BME280;57225;61.460;24.060;2023-02-28T15:14:06;100526.75;;;-0.35;68.96
61757;BME280;57225;61.460;24.060;2023-02-28T15:17:00;100522.72;;;-0.47;71.93
61757;BME280;57225;61.460;24.060;2023-02-28T15:19:49;100523.50;;;-0.55;72.15
61757;BME280;57225;61.460;24.060;2023-02-28T15:22:37;100517.03;;;-0.67;70.96
61757;BME280;57225;61.460;24.060;2023-02-28T15:25:23;100538.13;;;-0.68;71.75
61757;BME280;57225;61.460;24.060;2023-02-28T15:28:26;100539.53;;;-0.79;73.48
61757;BME280;57225;61.460;24.060;2023-02-28T15:31:27;100547.25;;;-0.81;71.25
61757;BME280;57225;61.460;24.060;2023-02-28T15:34:18;100547.09;;;-0.85;72.92
61757;BME280;57225;61.460;24.060;2023-02-28T15:43:39;100560.88;;;-0.98;74.27
61757;BME280;57225;61.460;24.060;2023-02-28T15:46:23;100558.63;;;-0.96;73.34
61757;BME280;57225;61.460;24.060;2023-02-28T15:49:19;100540.09;;;-0.99;72.72
61757;BME280;57225;61.460;24.060;2023-02-28T15:52:04;100540.91;;;-0.99;71.72
61757;BME280;57225;61.460;24.060;2023-02-28T15:54:48;100562.66;;;-0.94;71.89
61757;BME280;57225;61.460;24.060;2023-02-28T15:57:33;100562.13;;;-1.04;72.15
61757;BME280;57225;61.460;24.060;2023-02-28T16:00:23;100552.94;;;-1.08;73.26
61757;BME280;57225;61.460;24.060;2023-02-28T16:03:32;100547.56;;;-1.22;74.71
61757;BME280;57225;61.460;24.060;2023-02-28T16:06:37;100558.81;;;-1.24;74.20
61757;BME280;57225;61.460;24.060;2023-02-28T16:09:23;100547.44;;;-1.17;72.67
61757;BME280;57225;61.460;24.060;2023-02-28T16:12:08;100552.09;;;-1.17;72.69
61757;BME280;57225;61.460;24.060;2023-02-28T16:14:59;100533.47;;;-1.38;73.94
61757;BME280;57225;61.460;24.060;2023-02-28T16:17:46;100569.88;;;-1.29;73.65
61757;BME280;57225;61.460;24.060;2023-02-28T16:20:31;100565.97;;;-1.36;75.14
61757;BME280;57225;61.460;24.060;2023-02-28T16:23:15;100574.47;;;-1.38;74.71
61757;BME280;57225;61.460;24.060;2023-02-28T16:25:59;100567.75;;;-1.32;74.07
61757;BME280;57225;61.460;24.060;2023-02-28T16:28:44;100551.94;;;-1.43;77.19
61757;BME280;57225;61.460;24.060;2023-02-28T16:31:29;100558.34;;;-1.48;76.01
61757;BME280;57225;61.460;24.060;2023-02-28T16:34:14;100567.53;;;-1.44;78.08
61757;BME280;57225;61.460;24.060;2023-02-28T16:36:58;100559.56;;;-1.32;76.00
61757;BME280;57225;61.460;24.060;2023-02-28T16:39:44;100554.59;;;-1.30;76.00
61757;BME280;57225;61.460;24.060;2023-02-28T16:42:28;100554.78;;;-1.26;76.40
61757;BME280;57225;61.460;24.060;2023-02-28T16:45:20;100559.94;;;-1.25;76.78
61757;BME280;57225;61.460;24.060;2023-02-28T16:48:11;100569.63;;;-1.18;77.60